Washita, Oklahoma
Current Conditions -  °F | °C
As of 12:58 AM on Thursday 23 Oct 2014 (Local Time) from KFSI Reporting Station
Overcast Overcast  
Wind Chill: 62°   Ceiling: 6000
Heat Index: 62°   Visibility: 10mi
Dew Point: 59°   Wind: 2mph
Humidity: 91%   Direction: 80°E
Pressure: 30.08"   Gusts: NA
Location:  35.1°N, 98.34°W
Report Text: KFSI 230558Z AUTO 08002KT 10SM OVC060 17/15 A3008 RMK AO2 SLP180 60002 T01670152 10187 20164 402540113 57008
Loading
Personal Weather Stations






























Interactive Weather Map
Tropical Storm Tracking
New forecast layout! Learn more

10-Day Weather Forecast

Advertisements
Track Severe Weather on mobile